createdAt,value
2018-05-13T00:02:26.278Z,17.10
2018-05-13T00:04:54.421Z,17.30
2018-05-13T00:07:22.645Z,17.20
2018-05-13T00:09:50.772Z,17.10
2018-05-13T00:12:18.964Z,17.10
2018-05-13T00:14:47.094Z,17.10
2018-05-13T00:17:15.268Z,17.20
2018-05-13T00:19:43.421Z,17.20
2018-05-13T00:22:11.593Z,17.10
2018-05-13T00:24:39.732Z,17.10
2018-05-13T00:27:07.918Z,17.10
2018-05-13T00:29:36.829Z,17.20
2018-05-13T00:32:04.991Z,17.20
2018-05-13T00:34:33.153Z,17.00
2018-05-13T00:37:02.077Z,17.20
2018-05-13T00:39:30.230Z,17.00
2018-05-13T00:41:58.437Z,16.60
2018-05-13T00:44:26.596Z,16.80
2018-05-13T00:46:54.771Z,17.10
2018-05-13T00:49:23.778Z,17.00
2018-05-13T00:51:51.966Z,16.90
2018-05-13T00:57:27.333Z,16.60
2018-05-13T00:59:55.605Z,16.90
2018-05-13T01:02:23.742Z,16.90
2018-05-13T01:04:51.893Z,16.90
2018-05-13T01:07:20.818Z,17.00
2018-05-13T01:09:48.982Z,16.90
2018-05-13T01:12:17.097Z,17.00
2018-05-13T01:14:45.278Z,17.00
2018-05-13T01:17:13.438Z,16.90
2018-05-13T01:19:41.590Z,16.80
2018-05-13T01:22:09.797Z,16.80
2018-05-13T01:24:37.970Z,16.80
2018-05-13T01:27:06.089Z,16.90
2018-05-13T01:29:34.361Z,17.00
2018-05-13T01:32:02.512Z,16.80
2018-05-13T01:34:31.399Z,16.70
2018-05-13T01:37:00.331Z,16.70
2018-05-13T01:39:28.511Z,16.70
2018-05-13T01:41:56.664Z,16.70
2018-05-13T01:44:24.816Z,16.90
2018-05-13T01:46:53.029Z,16.90
2018-05-13T01:49:21.185Z,16.90
2018-05-13T01:51:49.324Z,16.90
2018-05-13T01:54:18.745Z,16.80
2018-05-13T01:56:46.928Z,16.80
2018-05-13T01:59:15.169Z,16.70
2018-05-13T02:01:43.337Z,16.60
2018-05-13T02:04:12.969Z,16.60
2018-05-13T02:52:33.773Z,15.10
2018-05-13T02:55:01.940Z,15.50
2018-05-13T02:57:30.085Z,15.70
2018-05-13T02:59:59.341Z,15.70
2018-05-13T03:02:27.509Z,15.80
2018-05-13T03:04:55.692Z,16.00
2018-05-13T03:07:23.825Z,15.90
2018-05-13T03:09:51.993Z,16.20
2018-05-13T03:12:20.144Z,16.30
2018-05-13T03:14:49.068Z,16.20
2018-05-13T03:17:17.249Z,16.30
2018-05-13T03:19:45.405Z,16.30
2018-05-13T03:22:13.550Z,16.40
2018-05-13T03:24:43.124Z,16.20
2018-05-13T03:27:11.286Z,16.00
2018-05-13T03:29:39.418Z,16.30
2018-05-13T03:32:07.543Z,16.40
2018-05-13T03:34:35.772Z,16.20
2018-05-13T03:37:03.893Z,16.60
2018-05-13T03:39:32.195Z,16.60
2018-05-13T03:42:01.085Z,16.50
2018-05-13T03:44:29.981Z,16.40
2018-05-13T03:46:59.041Z,16.50
2018-05-13T03:49:27.201Z,16.50
2018-05-13T03:51:55.361Z,16.60
2018-05-13T03:54:23.508Z,16.60
2018-05-13T03:56:51.667Z,16.60
2018-05-13T03:59:20.770Z,16.80
2018-05-13T04:01:48.913Z,16.70
2018-05-13T04:04:17.881Z,16.70
2018-05-13T04:06:46.160Z,16.90
2018-05-13T04:09:32.332Z,17.10
2018-05-13T04:12:18.537Z,17.10
2018-05-13T04:15:04.531Z,17.00
2018-05-13T04:17:32.657Z,17.00
2018-05-13T04:20:01.568Z,17.30
2018-05-13T04:22:29.737Z,17.30
2018-05-13T04:24:57.895Z,17.40
2018-05-13T04:27:26.053Z,17.60
2018-05-13T04:29:54.949Z,17.50
2018-05-13T04:32:23.840Z,17.60
2018-05-13T04:34:52.812Z,17.60
2018-05-13T04:37:21.718Z,17.70
2018-05-13T04:39:50.623Z,17.90
2018-05-13T04:42:18.782Z,17.90
2018-05-13T04:44:47.730Z,18.10
2018-05-13T04:47:15.868Z,18.00
2018-05-13T04:49:44.062Z,18.20
2018-05-13T04:52:12.410Z,18.50
2018-05-13T04:54:40.575Z,18.50
2018-05-13T04:57:08.760Z,18.60
2018-05-13T04:59:37.181Z,18.70
2018-05-13T05:02:05.433Z,18.80
2018-05-13T05:04:33.617Z,18.90
2018-05-13T05:07:01.778Z,18.70
2018-05-13T05:09:29.912Z,18.80
2018-05-13T05:11:58.139Z,18.70
2018-05-13T05:14:26.261Z,19.10
2018-05-13T05:16:55.219Z,19.40
2018-05-13T05:19:23.381Z,19.10
2018-05-13T05:21:51.628Z,18.90
2018-05-13T05:24:19.781Z,19.20
2018-05-13T05:26:47.929Z,19.40
2018-05-13T05:29:16.853Z,19.50
2018-05-13T05:31:45.079Z,19.50
2018-05-13T05:34:13.258Z,19.80
2018-05-13T05:36:42.166Z,19.80
2018-05-13T05:39:11.084Z,19.90
2018-05-13T05:41:39.201Z,20.00
2018-05-13T05:44:07.381Z,20.00
2018-05-13T05:46:36.342Z,20.00
2018-05-13T05:49:04.518Z,20.00
2018-05-13T05:51:32.686Z,20.10
2018-05-13T05:54:00.825Z,20.20
2018-05-13T05:56:28.960Z,20.10
2018-05-13T05:58:57.122Z,20.40
2018-05-13T06:01:25.250Z,20.30
2018-05-13T06:03:54.256Z,20.60
2018-05-13T06:06:22.426Z,20.80
2018-05-13T06:08:50.584Z,20.90
2018-05-13T06:11:18.721Z,20.70
2018-05-13T06:13:46.882Z,20.70
2018-05-13T06:16:15.000Z,20.60
2018-05-13T06:18:43.140Z,20.80
2018-05-13T06:21:11.266Z,21.00
2018-05-13T06:23:39.481Z,21.00
2018-05-13T06:26:07.699Z,20.90
2018-05-13T06:28:35.855Z,21.00
2018-05-13T06:31:04.755Z,21.10
2018-05-13T06:33:32.864Z,21.20
2018-05-13T06:36:01.026Z,21.60
2018-05-13T06:38:29.167Z,21.50
2018-05-13T06:40:57.373Z,21.60
2018-05-13T06:43:25.937Z,21.60
2018-05-13T06:45:54.130Z,21.70
2018-05-13T06:48:22.277Z,22.00
2018-05-13T06:50:50.475Z,22.40
2018-05-13T06:53:18.632Z,22.60
2018-05-13T06:55:46.823Z,21.90
2018-05-13T06:58:14.963Z,22.40
2018-05-13T07:00:43.081Z,22.30
2018-05-13T07:03:11.244Z,22.40
2018-05-13T07:05:39.380Z,22.50
2018-05-13T07:08:07.566Z,22.50
2018-05-13T07:10:35.701Z,22.70
2018-05-13T07:13:04.594Z,23.20
2018-05-13T07:15:33.508Z,23.10
2018-05-13T07:18:01.712Z,23.20
2018-05-13T07:20:29.905Z,23.40
2018-05-13T07:22:58.041Z,23.40
2018-05-13T07:25:26.198Z,23.40
2018-05-13T07:27:54.619Z,23.50
2018-05-13T07:30:22.813Z,23.60
2018-05-13T07:32:51.564Z,23.50
2018-05-13T07:35:19.720Z,23.60
2018-05-13T07:37:47.867Z,23.90
2018-05-13T07:40:16.593Z,23.80
2018-05-13T07:42:44.765Z,24.00
2018-05-13T07:45:12.909Z,24.00
2018-05-13T07:47:41.037Z,24.30
2018-05-13T07:50:09.175Z,24.40
2018-05-13T07:52:37.329Z,24.30
2018-05-13T07:55:05.497Z,24.20
2018-05-13T07:57:33.671Z,24.30
2018-05-13T08:00:01.891Z,24.10
2018-05-13T08:02:30.121Z,24.30
2018-05-13T08:04:58.294Z,24.70
2018-05-13T08:07:26.487Z,24.70
2018-05-13T08:09:54.621Z,25.00
2018-05-13T08:12:23.536Z,25.00
2018-05-13T08:14:51.730Z,24.80
2018-05-13T08:17:19.868Z,25.10
2018-05-13T08:19:48.009Z,25.10
2018-05-13T08:22:16.179Z,25.30
2018-05-13T08:24:44.330Z,25.40
2018-05-13T08:27:12.461Z,25.40
2018-05-13T08:29:40.655Z,25.30
2018-05-13T08:32:08.841Z,25.30
2018-05-13T08:34:37.096Z,25.60
2018-05-13T08:37:05.869Z,25.40
2018-05-13T08:39:34.042Z,25.50
2018-05-13T08:42:02.211Z,25.50
2018-05-13T08:44:30.366Z,25.40
2018-05-13T08:46:59.361Z,25.50
2018-05-13T08:49:28.289Z,25.50
2018-05-13T08:51:56.524Z,25.30
2018-05-13T08:54:25.503Z,25.50
2018-05-13T08:56:53.614Z,25.70
2018-05-13T08:59:21.869Z,25.80
2018-05-13T09:01:50.769Z,26.10
2018-05-13T09:04:19.086Z,25.90
2018-05-13T09:06:47.765Z,26.00
2018-05-13T09:09:15.926Z,26.10
2018-05-13T09:11:44.090Z,26.20
2018-05-13T09:14:12.316Z,26.30
2018-05-13T09:16:41.163Z,26.50
2018-05-13T09:19:09.327Z,26.30
2018-05-13T09:21:37.474Z,26.30
2018-05-13T09:24:06.411Z,26.40
2018-05-13T09:26:34.965Z,26.60
2018-05-13T09:29:03.153Z,26.50
2018-05-13T09:31:41.239Z,26.70
2018-05-13T09:34:09.410Z,26.70
2018-05-13T09:36:37.592Z,26.70
2018-05-13T09:39:07.113Z,26.80
2018-05-13T09:41:35.276Z,26.60
2018-05-13T09:44:03.409Z,26.60
2018-05-13T09:46:32.330Z,26.90
2018-05-13T09:49:00.879Z,27.00
2018-05-13T09:51:29.949Z,27.10
2018-05-13T09:53:58.209Z,27.20
2018-05-13T09:56:26.390Z,27.60
2018-05-13T09:58:54.504Z,27.60
2018-05-13T10:01:23.390Z,28.00
2018-05-13T10:03:52.346Z,28.00
2018-05-13T10:06:20.470Z,27.90
2018-05-13T10:08:48.678Z,28.10
2018-05-13T10:11:16.837Z,28.50
2018-05-13T10:13:44.956Z,28.60
2018-05-13T10:16:13.166Z,28.80
2018-05-13T10:18:41.284Z,29.20
2018-05-13T10:21:09.433Z,29.20
2018-05-13T10:23:37.562Z,29.50
2018-05-13T10:26:06.443Z,29.80
2018-05-13T10:28:35.351Z,30.00
2018-05-13T10:31:04.262Z,29.80
2018-05-13T10:33:32.421Z,29.90
2018-05-13T10:36:00.549Z,30.20
2018-05-13T10:38:28.806Z,30.40
2018-05-13T10:40:56.940Z,30.60
2018-05-13T10:43:25.144Z,30.50
2018-05-13T10:45:53.308Z,30.40
2018-05-13T10:48:21.466Z,30.80
2018-05-13T10:50:49.585Z,31.10
2018-05-13T10:53:17.805Z,31.40
2018-05-13T10:55:45.955Z,31.80
2018-05-13T10:58:14.153Z,31.70
2018-05-13T11:00:42.302Z,32.10
2018-05-13T11:03:11.217Z,32.50
2018-05-13T11:05:39.438Z,32.40
2018-05-13T11:08:08.294Z,32.50
2018-05-13T11:10:36.484Z,32.50
2018-05-13T11:13:04.734Z,32.70
2018-05-13T11:15:32.925Z,33.10
2018-05-13T11:18:01.086Z,33.30
2018-05-13T11:20:29.249Z,33.90
2018-05-13T11:22:57.389Z,33.50
2018-05-13T11:25:26.310Z,33.70
2018-05-13T11:27:54.483Z,34.70
2018-05-13T11:30:22.596Z,35.50
2018-05-13T11:32:50.728Z,35.50
2018-05-13T11:35:18.938Z,36.20
2018-05-13T11:37:47.638Z,37.00
2018-05-13T11:40:15.833Z,37.60
2018-05-13T11:42:44.790Z,38.40
2018-05-13T11:45:12.951Z,39.20
2018-05-13T11:47:41.079Z,39.60
2018-05-13T11:50:10.084Z,38.90
2018-05-13T11:52:38.242Z,40.00
2018-05-13T11:55:07.169Z,39.50
2018-05-13T11:57:35.330Z,40.70
2018-05-13T12:00:03.474Z,43.10
2018-05-13T12:02:32.417Z,42.80
2018-05-13T12:05:00.701Z,44.40
2018-05-13T12:07:29.543Z,45.90
2018-05-13T12:09:57.705Z,46.40
2018-05-13T12:12:26.625Z,47.90
2018-05-13T12:14:54.810Z,48.30
2018-05-13T12:17:22.953Z,47.50
2018-05-13T12:19:51.962Z,49.70
2018-05-13T12:22:20.114Z,50.40
2018-05-13T12:24:48.757Z,51.30
2018-05-13T12:27:16.918Z,51.40
2018-05-13T12:29:45.045Z,51.60
2018-05-13T12:32:13.203Z,51.80
2018-05-13T12:34:41.393Z,52.00
2018-05-13T12:37:09.560Z,53.00
2018-05-13T12:39:38.552Z,52.90
2018-05-13T12:42:06.682Z,54.60
2018-05-13T12:44:34.797Z,55.00
2018-05-13T12:47:03.711Z,56.60
2018-05-13T12:49:31.961Z,57.70
2018-05-13T12:52:00.186Z,54.80
2018-05-13T12:54:28.335Z,52.20
2018-05-13T12:56:56.448Z,55.60
2018-05-13T12:59:24.701Z,55.50
2018-05-13T13:01:52.867Z,55.90
2018-05-13T13:04:21.104Z,54.60
2018-05-13T13:06:49.258Z,56.60
2018-05-13T13:09:18.158Z,55.00
2018-05-13T13:11:47.023Z,56.30
2018-05-13T13:14:15.258Z,56.80
2018-05-13T13:16:43.446Z,57.50
2018-05-13T13:19:11.610Z,58.40
2018-05-13T13:21:39.840Z,58.10
2018-05-13T13:24:08.737Z,58.90
2018-05-13T13:26:36.898Z,58.70
2018-05-13T13:29:05.054Z,57.70
2018-05-13T13:34:31.717Z,57.60
2018-05-13T13:37:00.633Z,57.50
2018-05-13T13:39:28.789Z,57.10
2018-05-13T13:41:57.693Z,56.90
2018-05-13T13:44:26.704Z,55.80
2018-05-13T13:46:54.899Z,57.70
2018-05-13T13:49:23.071Z,59.50
2018-05-13T13:51:51.314Z,54.30
2018-05-13T13:54:19.486Z,55.30
2018-05-13T13:56:47.663Z,53.80
2018-05-13T13:59:16.186Z,55.30
2018-05-13T14:01:44.353Z,54.80
2018-05-13T14:04:12.526Z,55.70
2018-05-13T14:06:40.735Z,57.10
2018-05-13T14:09:09.745Z,57.50
2018-05-13T14:11:38.235Z,57.40
2018-05-13T14:14:06.459Z,55.30
2018-05-13T14:16:34.651Z,54.70
2018-05-13T14:19:03.584Z,54.10
2018-05-13T14:21:31.940Z,53.90
2018-05-13T14:24:00.841Z,54.80
2018-05-13T14:26:28.969Z,56.90
2018-05-13T14:28:57.148Z,58.50
2018-05-13T14:31:26.116Z,57.30
2018-05-13T14:33:54.271Z,58.20
2018-05-13T14:36:22.409Z,59.80
2018-05-13T14:38:50.516Z,59.30
2018-05-13T14:41:18.743Z,58.10
2018-05-13T14:43:46.826Z,56.40
2018-05-13T14:46:15.002Z,57.10
2018-05-13T14:48:43.569Z,56.80
2018-05-13T14:51:12.493Z,57.60
2018-05-13T14:53:40.682Z,57.10
2018-05-13T14:56:08.803Z,57.90
2018-05-13T14:58:38.462Z,57.10
2018-05-13T15:01:06.590Z,57.70
2018-05-13T15:03:35.525Z,58.70
2018-05-13T15:06:03.875Z,58.60
2018-05-13T15:08:32.036Z,57.50
2018-05-13T15:11:00.209Z,57.20
2018-05-13T15:13:28.387Z,57.60
2018-05-13T15:15:56.557Z,57.50
2018-05-13T15:18:24.774Z,57.30
2018-05-13T15:20:53.038Z,58.20
2018-05-13T15:23:21.310Z,57.70
2018-05-13T15:25:49.491Z,56.40
2018-05-13T15:28:17.633Z,57.10
2018-05-13T15:30:45.769Z,56.70
2018-05-13T15:33:14.038Z,56.40
2018-05-13T15:35:42.293Z,54.50
2018-05-13T15:38:11.233Z,55.10
2018-05-13T15:40:39.409Z,54.90
2018-05-13T15:43:08.227Z,54.80
2018-05-13T15:45:36.359Z,54.60
2018-05-13T15:48:05.256Z,54.00
2018-05-13T15:50:33.402Z,53.40
2018-05-13T15:53:01.549Z,54.10
2018-05-13T15:55:29.780Z,53.80
2018-05-13T15:57:57.932Z,53.60
2018-05-13T16:00:26.901Z,53.20
2018-05-13T16:02:55.845Z,53.50
2018-05-13T16:05:23.992Z,53.60
2018-05-13T16:07:52.917Z,51.70
2018-05-13T16:10:21.167Z,51.20
2018-05-13T16:12:49.357Z,51.10
2018-05-13T16:15:17.506Z,49.90
2018-05-13T16:17:46.546Z,49.40
2018-05-13T16:20:14.702Z,49.10
2018-05-13T16:22:42.861Z,49.90
2018-05-13T16:25:11.125Z,50.30
2018-05-13T16:27:39.278Z,49.70
2018-05-13T16:30:08.334Z,49.70
2018-05-13T16:32:36.448Z,49.40
2018-05-13T16:35:05.423Z,48.20
2018-05-13T16:37:33.682Z,48.60
2018-05-13T16:40:01.906Z,48.60
2018-05-13T16:45:27.864Z,48.40
2018-05-13T16:47:56.133Z,47.50
2018-05-13T16:50:24.297Z,47.10
2018-05-13T16:52:52.429Z,46.60
2018-05-13T16:55:20.643Z,46.40
2018-05-13T16:57:48.813Z,45.70
2018-05-13T17:00:16.986Z,46.90
2018-05-13T17:02:45.135Z,44.90
2018-05-13T17:05:14.082Z,44.10
2018-05-13T17:07:42.229Z,44.30
2018-05-13T17:10:10.360Z,44.30
2018-05-13T17:12:38.568Z,43.80
2018-05-13T17:15:06.731Z,43.50
2018-05-13T17:17:34.904Z,43.10
2018-05-13T17:20:04.301Z,41.70
2018-05-13T17:22:32.422Z,41.50
2018-05-13T17:25:00.703Z,41.30
2018-05-13T17:27:28.977Z,41.70
2018-05-13T17:29:57.147Z,41.10
2018-05-13T17:32:26.342Z,40.70
2018-05-13T17:34:54.457Z,40.40
2018-05-13T17:37:23.456Z,40.00
2018-05-13T17:39:51.594Z,39.70
2018-05-13T17:42:19.773Z,39.40
2018-05-13T17:44:48.025Z,38.00
2018-05-13T17:47:16.189Z,36.70
2018-05-13T17:49:44.370Z,36.00
2018-05-13T17:52:13.261Z,34.40
2018-05-13T17:54:41.403Z,33.20
2018-05-13T17:57:09.574Z,32.30
2018-05-13T17:59:38.445Z,31.30
2018-05-13T18:02:07.328Z,30.50
2018-05-13T18:04:36.294Z,29.60
2018-05-13T18:07:04.442Z,28.90
2018-05-13T18:09:32.916Z,27.90
2018-05-13T18:12:01.121Z,27.70
2018-05-13T18:14:29.247Z,27.30
2018-05-13T18:16:57.372Z,27.00
2018-05-13T18:19:25.630Z,26.40
2018-05-13T18:21:53.753Z,26.10
2018-05-13T18:24:21.945Z,25.70
2018-05-13T18:26:50.813Z,25.70
2018-05-13T18:29:19.773Z,25.20
2018-05-13T18:31:48.008Z,24.80
2018-05-13T18:34:16.128Z,24.90
2018-05-13T18:36:44.257Z,24.70
2018-05-13T18:39:12.478Z,24.50
2018-05-13T18:41:40.601Z,24.20
2018-05-13T18:44:08.776Z,24.00
2018-05-13T18:46:37.050Z,23.80
2018-05-13T18:49:05.441Z,23.60
2018-05-13T18:51:33.528Z,23.70
2018-05-13T18:54:02.557Z,23.70
2018-05-13T18:56:31.473Z,23.20
2018-05-13T18:58:59.637Z,23.30
2018-05-13T19:01:27.816Z,23.10
2018-05-13T19:03:55.937Z,23.00
2018-05-13T19:06:25.148Z,23.10
2018-05-13T19:08:53.250Z,23.00
2018-05-13T19:11:21.452Z,22.90
2018-05-13T19:13:49.590Z,22.70
2018-05-13T19:16:17.770Z,22.80
2018-05-13T19:18:45.940Z,22.40
2018-05-13T19:21:14.103Z,22.60
2018-05-13T19:23:42.270Z,22.50
2018-05-13T19:26:11.172Z,22.30
2018-05-13T19:28:39.302Z,22.40
2018-05-13T19:31:07.470Z,22.10
2018-05-13T19:33:35.629Z,22.10
2018-05-13T19:36:03.800Z,22.10
2018-05-13T19:38:31.958Z,21.90
2018-05-13T19:41:00.090Z,21.90
2018-05-13T19:43:29.065Z,21.90
2018-05-13T19:45:57.281Z,21.70
2018-05-13T19:48:26.011Z,21.90
2018-05-13T19:50:54.183Z,21.50
2018-05-13T19:53:22.377Z,21.60
2018-05-13T19:55:51.352Z,21.50
2018-05-13T19:58:19.492Z,21.40
2018-05-13T20:00:48.560Z,21.50
2018-05-13T20:03:16.878Z,21.20
2018-05-13T20:05:44.912Z,21.20
2018-05-13T20:08:13.107Z,21.10
2018-05-13T20:10:41.392Z,21.10
2018-05-13T20:13:10.196Z,21.10
2018-05-13T20:15:38.457Z,20.80
2018-05-13T20:18:06.542Z,20.90
2018-05-13T20:20:34.672Z,20.70
2018-05-13T20:23:20.717Z,20.60
2018-05-13T20:25:48.790Z,20.60
2018-05-13T20:28:16.945Z,20.60
2018-05-13T20:30:45.101Z,20.70
2018-05-13T20:33:13.285Z,20.60
2018-05-13T20:35:41.417Z,20.50
2018-05-13T20:38:09.611Z,20.50
2018-05-13T20:40:37.729Z,20.50
2018-05-13T20:43:05.887Z,20.30
2018-05-13T20:45:34.060Z,20.30
2018-05-13T20:48:02.201Z,20.20
2018-05-13T20:50:30.330Z,20.20
2018-05-13T20:52:59.250Z,20.00
2018-05-13T20:55:27.420Z,19.90
2018-05-13T20:57:55.656Z,19.90
2018-05-13T21:00:24.481Z,19.90
2018-05-13T21:02:52.716Z,19.90
2018-05-13T21:05:21.674Z,19.70
2018-05-13T21:07:49.928Z,19.50
2018-05-13T21:10:18.994Z,19.80
2018-05-13T21:12:47.928Z,19.60
2018-05-13T21:15:16.135Z,19.60
2018-05-13T21:17:44.294Z,19.50
2018-05-13T21:20:12.430Z,19.30
2018-05-13T21:22:40.549Z,19.50
2018-05-13T21:25:09.630Z,19.50
2018-05-13T21:27:38.673Z,19.40
2018-05-13T21:30:06.850Z,19.40
2018-05-13T21:32:34.996Z,19.30
2018-05-13T21:35:03.966Z,19.40
2018-05-13T21:37:32.104Z,19.40
2018-05-13T21:40:00.253Z,19.30
2018-05-13T21:42:28.425Z,19.20
2018-05-13T21:44:56.607Z,19.20
2018-05-13T21:47:25.137Z,19.10
2018-05-13T21:49:53.361Z,19.30
2018-05-13T21:52:21.570Z,19.20
2018-05-13T21:54:49.778Z,19.10
2018-05-13T21:57:18.723Z,19.10
2018-05-13T21:59:46.893Z,19.20
2018-05-13T22:02:15.037Z,19.00
2018-05-13T22:05:02.118Z,18.80
2018-05-13T22:07:30.292Z,18.90
2018-05-13T22:09:58.447Z,18.90
2018-05-13T22:12:27.236Z,18.80
2018-05-13T22:14:55.524Z,18.80
2018-05-13T22:17:23.754Z,18.80
2018-05-13T22:19:52.895Z,18.80
2018-05-13T22:22:21.052Z,18.60
2018-05-13T22:24:49.210Z,18.70
2018-05-13T22:27:17.370Z,18.60
2018-05-13T22:29:45.569Z,18.80
2018-05-13T22:32:14.493Z,18.50
2018-05-13T22:34:43.410Z,18.50
2018-05-13T22:37:11.760Z,18.30
2018-05-13T22:39:40.671Z,18.40
2018-05-13T22:42:08.789Z,18.40
2018-05-13T22:44:36.966Z,18.40
2018-05-13T22:47:05.282Z,18.40
2018-05-13T22:49:34.939Z,18.20
2018-05-13T22:52:03.062Z,18.00
2018-05-13T22:54:31.968Z,18.10
2018-05-13T22:57:00.129Z,18.10
2018-05-13T22:59:28.338Z,18.10
2018-05-13T23:01:56.513Z,18.00
2018-05-13T23:04:24.690Z,17.90
2018-05-13T23:06:53.357Z,17.90
2018-05-13T23:09:21.545Z,17.90
2018-05-13T23:11:49.737Z,17.70
2018-05-13T23:14:17.872Z,17.80
2018-05-13T23:16:46.165Z,18.00
2018-05-13T23:19:15.299Z,17.80
2018-05-13T23:21:43.537Z,17.60
2018-05-13T23:24:12.208Z,17.80
2018-05-13T23:26:40.581Z,17.60
2018-05-13T23:29:08.739Z,17.70
2018-05-13T23:31:36.896Z,17.60
2018-05-13T23:34:05.834Z,17.50
2018-05-13T23:36:33.974Z,17.20
2018-05-13T23:39:02.150Z,17.30
2018-05-13T23:41:30.325Z,17.40
2018-05-13T23:43:58.493Z,17.40
2018-05-13T23:46:26.654Z,17.40
2018-05-13T23:48:55.566Z,17.50
2018-05-13T23:51:23.720Z,17.50
2018-05-13T23:53:51.946Z,17.30
2018-05-13T23:56:20.130Z,17.20
2018-05-13T23:58:48.352Z,17.30
